Time;durP1;ratioP1;P1;durP2;ratioP2;P2;SDS_P1;SDS_P2;PMS_P1;PMS_P2;Temp;Humidity;BMP_temperature;BMP_pressure;BME280_temperature;BME280_humidity;BME280_pressure;Samples;Min_cycle;Max_cycle;Signal;HPM_P1;HPM_P2
2022/05/28 00:00:54;;;;;;;15.02;7.60;;;9.30;99.90;;;;;;4972176;28;20105;-56
2022/05/28 00:03:20;;;;;;;;;;;9.30;99.90;;;;;;4972618;28;20038;-55
2022/05/28 00:05:46;;;;;;;12.43;8.88;;;9.30;99.90;;;;;;4972313;28;19906;-55
2022/05/28 00:08:12;;;;;;;12.98;7.78;;;9.20;99.90;;;;;;4971892;28;20054;-55
2022/05/28 00:10:38;;;;;;;15.05;8.65;;;9.30;99.90;;;;;;4971981;28;20031;-55
2022/05/28 00:13:05;;;;;;;12.68;8.15;;;9.30;99.90;;;;;;4973326;28;20046;-55
2022/05/28 00:15:30;;;;;;;13.23;8.05;;;9.30;99.90;;;;;;4973644;28;20403;-56
2022/05/28 00:17:57;;;;;;;13.48;8.65;;;9.30;99.90;;;;;;4973447;28;20061;-55
2022/05/28 00:20:23;;;;;;;13.43;7.30;;;9.30;99.90;;;;;;4973506;28;20023;-56
2022/05/28 00:22:49;;;;;;;14.18;8.05;;;9.40;99.90;;;;;;4973354;28;20027;-55
2022/05/28 00:25:16;;;;;;;14.15;7.85;;;9.30;99.90;;;;;;4973356;28;20620;-55
2022/05/28 00:27:42;;;;;;;;;;;9.20;99.90;;;;;;4973589;28;20073;-56
2022/05/28 00:30:10;;;;;;;14.68;8.35;;;9.10;99.90;;;;;;4987591;28;20297;-55
2022/05/28 00:32:35;;;;;;;13.27;7.60;;;9.00;99.90;;;;;;4979080;28;20049;-53
2022/05/28 00:35:04;;;;;;;15.77;7.82;;;8.90;99.90;;;;;;5006776;28;20022;-55
2022/05/28 00:37:29;;;;;;;13.52;8.15;;;8.90;99.90;;;;;;4990640;28;20027;-55
2022/05/28 00:39:55;;;;;;;14.70;8.55;;;8.80;99.90;;;;;;4991258;28;20019;-55
2022/05/28 00:42:21;;;;;;;15.73;8.93;;;8.90;99.90;;;;;;4991438;28;20022;-54
2022/05/28 00:44:47;;;;;;;13.45;8.35;;;8.90;99.90;;;;;;4990952;28;20101;-54
2022/05/28 00:47:13;;;;;;;12.60;8.02;;;8.90;99.90;;;;;;4991184;28;20428;-54
2022/05/28 00:49:39;;;;;;;14.98;7.85;;;8.90;99.90;;;;;;4991223;28;20026;-55
2022/05/28 00:52:09;;;;;;;13.07;8.18;;;8.90;99.90;;;;;;4990815;28;20402;-55
2022/05/28 00:54:42;;;;;;;16.70;8.10;;;8.80;99.90;;;;;;4981662;28;20740;-55
2022/05/28 00:57:10;;;;;;;13.55;7.50;;;8.90;99.90;;;;;;4982486;28;20018;-55
2022/05/28 00:59:36;;;;;;;17.40;8.57;;;8.80;99.90;;;;;;4980610;28;20026;-54
2022/05/28 01:02:14;;;;;;;28.98;9.45;;;8.80;99.90;;;;;;4981105;28;20057;-55
2022/05/28 01:05:05;;;;;;;19.60;8.25;;;8.80;99.90;;;;;;4981221;28;20021;-54
2022/05/28 01:07:50;;;;;;;19.02;8.35;;;8.90;99.90;;;;;;4982246;28;20050;-54
2022/05/28 01:10:23;;;;;;;18.35;8.82;;;8.90;99.90;;;;;;4980444;28;20089;-55
2022/05/28 01:12:52;;;;;;;19.40;8.98;;;8.80;99.90;;;;;;4979775;28;20035;-55
2022/05/28 01:15:31;;;;;;;19.38;9.88;;;8.80;99.90;;;;;;4981055;28;20085;-55
2022/05/28 01:18:14;;;;;;;17.90;8.90;;;8.80;99.90;;;;;;4981541;28;20033;-55
2022/05/28 01:20:54;;;;;;;18.98;9.85;;;8.90;99.90;;;;;;4980770;28;20474;-54
2022/05/28 01:24:00;;;;;;;17.48;8.68;;;8.90;99.90;;;;;;4988656;28;20054;-54
2022/05/28 01:26:47;;;;;;;17.00;8.90;;;8.90;99.90;;;;;;4910065;29;20035;-54
2022/05/28 01:29:16;;;;;;;16.77;8.45;;;9.00;99.90;;;;;;4910952;29;20038;-54
2022/05/28 01:31:43;;;;;;;19.90;9.90;;;8.90;99.90;;;;;;4955066;28;20053;-54
2022/05/28 01:34:09;;;;;;;;;;;8.90;99.90;;;;;;4979688;28;20039;-57
2022/05/28 01:36:37;;;;;;;13.02;8.63;;;8.80;99.90;;;;;;4981163;28;19976;-57
2022/05/28 01:39:06;;;;;;;14.88;8.32;;;8.80;99.90;;;;;;4980857;28;20106;-57
2022/05/28 01:41:34;;;;;;;13.30;8.23;;;8.80;99.90;;;;;;4979348;28;20022;-54
2022/05/28 01:44:01;;;;;;;12.30;8.07;;;8.80;99.90;;;;;;4980516;28;20033;-55
2022/05/28 01:46:28;;;;;;;14.85;8.00;;;8.80;99.90;;;;;;4981324;28;20102;-54
2022/05/28 01:48:55;;;;;;;14.82;8.32;;;8.80;99.90;;;;;;4985106;28;20030;-54
2022/05/28 01:51:25;;;;;;;;;;;8.80;99.90;;;;;;4989133;28;20447;-54
2022/05/28 01:54:08;;;;;;;15.88;8.13;;;8.70;99.90;;;;;;4988432;28;20266;-54
2022/05/28 01:56:35;;;;;;;13.35;8.10;;;8.70;99.90;;;;;;4980958;28;20022;-56
2022/05/28 01:59:01;;;;;;;14.85;8.23;;;8.60;99.90;;;;;;4979961;28;20034;-56
2022/05/28 02:01:27;;;;;;;14.27;7.38;;;8.70;99.90;;;;;;4979439;28;20033;-56
2022/05/28 02:03:57;;;;;;;11.93;8.18;;;8.70;99.90;;;;;;4987085;28;20018;-57
2022/05/28 02:06:23;;;;;;;16.02;8.25;;;8.70;99.90;;;;;;4989903;28;20355;-56
2022/05/28 02:08:50;;;;;;;16.15;8.57;;;8.70;99.90;;;;;;4990049;28;20030;-56
2022/05/28 02:11:21;;;;;;;24.30;9.52;;;8.80;99.90;;;;;;4989528;28;20023;-54
2022/05/28 02:14:04;;;;;;;16.45;8.98;;;8.70;99.90;;;;;;4989643;28;20114;-55
2022/05/28 02:16:51;;;;;;;14.52;8.65;;;8.80;99.90;;;;;;4989036;28;20096;-54
2022/05/28 02:19:45;;;;;;;13.50;7.47;;;8.80;99.90;;;;;;4987056;28;20110;-54
2022/05/28 02:22:19;;;;;;;12.98;7.78;;;8.80;99.90;;;;;;4963778;28;20390;-54
2022/05/28 02:25:04;;;;;;;15.77;7.90;;;8.80;99.90;;;;;;4988757;28;20378;-53
2022/05/28 02:27:31;;;;;;;23.73;8.23;;;8.80;99.90;;;;;;4989123;28;20080;-54
2022/05/28 02:30:00;;;;;;;12.93;8.52;;;8.70;99.90;;;;;;4971463;28;20490;-53
2022/05/28 02:32:26;;;;;;;13.07;8.65;;;8.70;99.90;;;;;;4988854;28;20034;-53
2022/05/28 02:34:51;;;;;;;14.05;9.15;;;8.70;99.90;;;;;;4988621;28;20026;-54
2022/05/28 02:37:22;;;;;;;17.83;8.80;;;8.70;99.90;;;;;;4989111;28;20049;-54
2022/05/28 02:39:48;;;;;;;20.33;10.13;;;8.70;99.90;;;;;;4988924;28;20153;-54
2022/05/28 02:42:15;;;;;;;18.75;11.23;;;8.70;99.90;;;;;;4988470;28;20029;-54
2022/05/28 02:44:40;;;;;;;18.23;10.45;;;8.70;99.90;;;;;;4984203;28;20022;-54
2022/05/28 02:47:06;;;;;;;17.70;11.18;;;8.70;99.90;;;;;;4989011;28;20028;-53
2022/05/28 02:49:33;;;;;;;14.15;10.30;;;8.70;99.90;;;;;;4988568;28;20482;-53
2022/05/28 02:52:04;;;;;;;20.25;9.98;;;8.80;99.90;;;;;;4988371;28;20474;-55
2022/05/28 02:54:30;;;;;;;15.48;9.93;;;8.80;99.90;;;;;;4970907;28;20036;-55
2022/05/28 02:56:56;;;;;;;15.10;10.02;;;8.80;99.90;;;;;;4971547;28;20105;-55
2022/05/28 02:59:22;;;;;;;14.93;9.63;;;8.80;99.90;;;;;;4988978;28;20117;-55
2022/05/28 03:01:49;;;;;;;17.27;9.73;;;8.90;99.90;;;;;;4992311;28;20548;-57
2022/05/28 03:04:14;;;;;;;17.80;10.75;;;8.90;99.90;;;;;;4992276;28;20065;-55
2022/05/28 03:06:40;;;;;;;23.98;10.75;;;8.90;99.90;;;;;;4992919;28;20062;-55
2022/05/28 03:09:07;;;;;;;17.63;10.82;;;8.80;99.90;;;;;;4992424;28;20030;-55
2022/05/28 03:11:34;;;;;;;;;;;8.80;99.90;;;;;;4992491;28;20041;-54
2022/05/28 03:13:59;;;;;;;19.40;10.70;;;8.80;99.90;;;;;;4991777;28;20001;-55
2022/05/28 03:16:25;;;;;;;16.25;10.25;;;8.90;99.90;;;;;;4992552;28;20110;-55
2022/05/28 03:18:51;;;;;;;15.40;9.80;;;8.90;99.90;;;;;;4992105;28;20030;-55
2022/05/28 03:21:17;;;;;;;14.98;9.18;;;9.00;99.90;;;;;;4991801;28;20034;-54
2022/05/28 03:23:47;;;;;;;11.63;8.43;;;9.00;99.90;;;;;;4992219;28;20029;-55
2022/05/28 03:26:19;;;;;;;14.25;9.43;;;8.90;99.90;;;;;;4992297;28;20022;-56
2022/05/28 03:28:45;;;;;;;13.38;9.02;;;8.90;99.90;;;;;;4992138;28;20081;-56
2022/05/28 03:31:11;;;;;;;18.08;8.60;;;8.90;99.90;;;;;;4992107;28;20019;-54
2022/05/28 03:33:37;;;;;;;13.32;8.70;;;8.90;99.90;;;;;;4990749;28;20046;-54
2022/05/28 03:36:04;;;;;;;15.93;10.05;;;8.90;99.90;;;;;;4992405;28;20027;-57
2022/05/28 03:38:30;;;;;;;16.73;9.27;;;8.90;99.90;;;;;;4992073;28;20038;-57
2022/05/28 03:40:58;;;;;;;14.85;9.98;;;8.90;99.90;;;;;;4992602;28;20022;-57
2022/05/28 03:43:25;;;;;;;18.10;9.90;;;8.90;99.90;;;;;;4992107;28;20474;-54
2022/05/28 03:45:51;;;;;;;17.58;9.07;;;8.80;99.90;;;;;;4992272;28;20022;-53
2022/05/28 03:48:17;;;;;;;13.77;8.40;;;8.90;99.90;;;;;;4992110;28;20105;-53
2022/05/28 03:50:43;;;;;;;14.82;8.82;;;8.90;99.90;;;;;;4992313;28;20018;-54
2022/05/28 03:53:10;;;;;;;12.88;7.50;;;8.80;99.90;;;;;;4991659;28;20085;-55
2022/05/28 03:55:37;;;;;;;13.80;6.90;;;8.90;99.90;;;;;;4991955;28;20023;-54
2022/05/28 03:58:03;;;;;;;13.13;5.82;;;8.90;99.90;;;;;;4991958;28;20655;-55
2022/05/28 04:00:30;;;;;;;11.02;5.60;;;8.90;99.90;;;;;;4992214;28;20029;-55
2022/05/28 04:02:57;;;;;;;11.40;5.10;;;9.00;99.90;;;;;;4991947;28;20058;-55
2022/05/28 04:05:23;;;;;;;7.72;4.40;;;9.10;99.90;;;;;;4991749;28;20438;-55
2022/05/28 04:07:49;;;;;;;10.73;4.10;;;9.10;99.90;;;;;;4992236;28;20109;-55
2022/05/28 04:10:15;;;;;;;9.23;3.28;;;9.20;99.90;;;;;;4992137;28;20034;-55
2022/05/28 04:12:41;;;;;;;7.70;3.67;;;9.20;99.90;;;;;;4990771;28;20130;-55
2022/05/28 04:15:09;;;;;;;6.72;3.75;;;9.20;99.90;;;;;;4992229;28;20118;-53
2022/05/28 04:17:35;;;;;;;6.18;3.47;;;9.20;99.90;;;;;;4992252;28;20081;-52
2022/05/28 04:20:01;;;;;;;7.50;3.70;;;9.30;99.90;;;;;;4991996;28;20035;-52
2022/05/28 04:22:26;;;;;;;7.78;3.72;;;9.30;99.90;;;;;;4992005;28;20497;-53
2022/05/28 04:24:52;;;;;;;7.35;3.58;;;9.20;99.90;;;;;;4991838;28;20026;-53
2022/05/28 04:27:19;;;;;;;12.23;3.28;;;9.30;99.90;;;;;;4991935;28;20035;-53
2022/05/28 04:29:44;;;;;;;8.57;3.57;;;9.40;99.90;;;;;;4991639;28;20030;-56
2022/05/28 04:32:10;;;;;;;10.55;3.40;;;9.40;99.90;;;;;;4991999;28;20030;-56
2022/05/28 04:34:36;;;;;;;7.68;3.08;;;9.50;99.90;;;;;;4991559;28;20093;-55
2022/05/28 04:37:02;;;;;;;8.77;3.30;;;9.60;99.90;;;;;;4991923;28;20030;-55
2022/05/28 04:39:28;;;;;;;7.70;2.97;;;9.60;99.90;;;;;;4991621;28;20062;-54
2022/05/28 04:41:54;;;;;;;8.55;2.72;;;9.70;99.90;;;;;;4991615;28;20026;-59
2022/05/28 04:44:20;;;;;;;9.57;2.95;;;9.80;99.90;;;;;;4991229;28;20081;-57
2022/05/28 04:46:45;;;;;;;10.57;3.67;;;9.90;99.90;;;;;;4991920;28;20386;-57
2022/05/28 04:49:11;;;;;;;8.80;3.38;;;10.00;99.90;;;;;;4991523;28;20053;-58
2022/05/28 04:51:37;;;;;;;9.55;2.95;;;10.00;99.90;;;;;;4991269;28;20054;-57
2022/05/28 04:54:03;;;;;;;8.30;2.80;;;10.00;99.90;;;;;;4991301;28;20069;-57
2022/05/28 04:56:28;;;;;;;4.75;2.60;;;10.10;99.90;;;;;;4991717;28;20443;-59
2022/05/28 04:58:54;;;;;;;10.35;2.70;;;10.10;99.90;;;;;;4991423;28;20431;-59
2022/05/28 05:01:21;;;;;;;12.00;3.30;;;10.20;99.90;;;;;;4991399;28;20030;-54
2022/05/28 05:03:47;;;;;;;12.13;2.85;;;10.20;99.90;;;;;;4991846;28;20042;-54
2022/05/28 05:06:13;;;;;;;13.52;2.90;;;10.30;99.90;;;;;;4993430;28;20402;-55
2022/05/28 05:08:38;;;;;;;9.60;2.70;;;10.30;99.90;;;;;;4993709;28;20430;-55
2022/05/28 05:11:04;;;;;;;11.77;3.08;;;10.40;99.90;;;;;;5011654;28;20026;-56
2022/05/28 05:13:30;;;;;;;10.30;3.35;;;10.40;99.90;;;;;;5011450;28;20038;-56
2022/05/28 05:15:56;;;;;;;11.25;2.40;;;10.40;99.90;;;;;;5011302;28;20327;-53
2022/05/28 05:18:22;;;;;;;8.32;1.98;;;10.40;99.90;;;;;;5011196;28;20034;-58
2022/05/28 05:20:48;;;;;;;10.75;3.22;;;10.40;99.90;;;;;;5011394;28;20029;-58
2022/05/28 05:23:13;;;;;;;14.75;2.85;;;10.50;99.90;;;;;;5010984;28;20040;-58
2022/05/28 05:25:39;;;;;;;8.75;2.65;;;10.50;99.90;;;;;;5010923;28;20018;-58
2022/05/28 05:28:06;;;;;;;8.65;2.47;;;10.60;99.90;;;;;;5011226;28;20131;-57
2022/05/28 05:30:31;;;;;;;11.93;2.88;;;10.60;99.90;;;;;;5011487;28;20029;-57
2022/05/28 05:32:57;;;;;;;10.48;2.60;;;10.60;99.90;;;;;;5010934;28;20042;-57
2022/05/28 05:35:23;;;;;;;11.38;2.95;;;10.70;99.90;;;;;;5011353;28;20022;-55
2022/05/28 05:37:49;;;;;;;12.82;2.92;;;10.70;99.90;;;;;;5010571;28;20084;-55
2022/05/28 05:40:15;;;;;;;12.63;2.72;;;10.70;99.90;;;;;;5011123;28;20033;-55
2022/05/28 05:42:41;;;;;;;8.13;2.15;;;10.80;99.90;;;;;;5011008;28;20033;-55
2022/05/28 05:45:07;;;;;;;8.07;2.00;;;10.80;99.90;;;;;;5011101;28;20018;-55
2022/05/28 05:47:33;;;;;;;9.77;1.90;;;10.90;99.90;;;;;;5011054;28;20034;-55
2022/05/28 05:49:59;;;;;;;7.25;2.45;;;10.90;99.90;;;;;;5010754;28;20021;-56
2022/05/28 05:52:25;;;;;;;13.93;2.05;;;10.90;99.90;;;;;;5010636;28;20057;-56
2022/05/28 05:54:51;;;;;;;8.73;1.98;;;10.90;99.90;;;;;;5010963;28;20525;-56
2022/05/28 05:57:17;;;;;;;16.40;2.83;;;11.00;99.90;;;;;;5010864;28;20080;-56
2022/05/28 05:59:43;;;;;;;11.43;2.65;;;11.10;99.90;;;;;;5010483;28;20033;-56
2022/05/28 06:02:09;;;;;;;10.38;2.30;;;11.10;99.90;;;;;;5010479;28;20462;-55
2022/05/28 06:04:35;;;;;;;12.35;2.72;;;11.20;99.90;;;;;;5010563;28;20028;-55
2022/05/28 06:07:03;;;;;;;10.18;2.17;;;11.30;99.90;;;;;;5010095;28;20026;-55
2022/05/28 06:09:28;;;;;;;10.15;2.63;;;11.30;99.90;;;;;;5010509;28;20454;-56
2022/05/28 06:11:54;;;;;;;9.05;2.85;;;11.40;99.90;;;;;;5010460;28;20036;-55
2022/05/28 06:14:20;;;;;;;5.20;2.30;;;11.40;99.90;;;;;;5010679;28;20030;-56
2022/05/28 06:16:45;;;;;;;7.43;2.13;;;11.50;99.90;;;;;;4992919;28;20061;-55
2022/05/28 06:19:11;;;;;;;10.10;2.70;;;11.40;99.90;;;;;;5010358;28;20033;-56
2022/05/28 06:21:37;;;;;;;6.43;1.98;;;11.50;99.90;;;;;;4992579;28;20079;-56
2022/05/28 06:24:03;;;;;;;10.77;2.00;;;11.60;99.90;;;;;;5010226;28;20108;-56
2022/05/28 06:26:29;;;;;;;9.02;2.30;;;11.60;99.90;;;;;;5010301;28;20049;-56
2022/05/28 06:28:54;;;;;;;7.18;2.28;;;11.70;99.90;;;;;;4992453;28;20034;-56
2022/05/28 06:31:20;;;;;;;8.98;1.45;;;11.80;99.90;;;;;;5010297;28;20064;-56
2022/05/28 06:33:46;;;;;;;8.70;1.90;;;11.80;99.90;;;;;;5010237;28;20038;-57
2022/05/28 06:36:13;;;;;;;7.00;1.67;;;11.90;99.90;;;;;;5009546;28;20049;-56
2022/05/28 06:38:39;;;;;;;9.35;1.80;;;11.90;99.90;;;;;;5009938;28;20022;-56
2022/05/28 06:41:05;;;;;;;4.63;1.00;;;11.80;99.90;;;;;;5010436;28;20477;-59
2022/05/28 06:43:32;;;;;;;9.75;1.10;;;11.80;99.90;;;;;;5010318;28;20481;-56
2022/05/28 06:46:01;;;;;;;11.48;1.75;;;11.80;99.90;;;;;;5010263;28;20030;-57
2022/05/28 06:48:27;;;;;;;6.45;1.23;;;11.80;99.90;;;;;;5009857;28;20025;-54
2022/05/28 06:51:01;;;;;;;5.47;1.40;;;11.90;99.90;;;;;;5010084;28;20022;-55
2022/05/28 06:53:35;;;;;;;4.72;1.15;;;11.90;99.90;;;;;;5010089;28;20042;-53
2022/05/28 06:56:02;;;;;;;4.55;1.98;;;12.10;99.90;;;;;;5010316;28;20037;-53
2022/05/28 06:58:27;;;;;;;6.85;1.13;;;12.10;99.90;;;;;;5009614;28;20106;-53
2022/05/28 07:00:54;;;;;;;7.25;1.60;;;12.10;99.90;;;;;;5010061;28;20025;-53
2022/05/28 07:03:23;;;;;;;5.53;1.02;;;12.10;99.90;;;;;;5010218;28;20041;-56
2022/05/28 07:05:49;;;;;;;6.43;1.02;;;12.20;99.90;;;;;;5009986;28;20479;-56
2022/05/28 07:08:15;;;;;;;7.28;1.17;;;12.30;99.90;;;;;;5009658;28;20030;-56
2022/05/28 07:10:48;;;;;;;4.15;1.27;;;12.30;99.90;;;;;;5009686;28;20377;-57
2022/05/28 07:13:15;;;;;;;7.38;1.38;;;12.30;99.90;;;;;;5009363;28;20037;-56
2022/05/28 07:15:41;;;;;;;2.97;0.80;;;12.30;99.90;;;;;;5009747;28;20036;-57
2022/05/28 07:18:07;;;;;;;6.22;1.10;;;12.30;99.90;;;;;;5009889;28;20022;-58
2022/05/28 07:20:32;;;;;;;6.30;1.05;;;12.30;99.90;;;;;;5009941;28;20033;-59
2022/05/28 07:22:58;;;;;;;3.10;0.93;;;12.30;99.90;;;;;;5009671;28;20389;-58
2022/05/28 07:25:24;;;;;;;6.95;1.75;;;12.40;99.90;;;;;;5009615;28;20022;-58
2022/05/28 07:27:49;;;;;;;6.20;0.90;;;12.60;99.90;;;;;;5009597;28;20030;-58
2022/05/28 07:30:15;;;;;;;9.27;1.30;;;12.60;99.90;;;;;;5009765;28;20037;-57
2022/05/28 07:32:41;;;;;;;4.78;0.93;;;12.60;99.90;;;;;;5009498;28;20100;-56
2022/05/28 07:35:08;;;;;;;5.70;1.40;;;12.70;99.90;;;;;;5009945;28;20022;-56
2022/05/28 07:37:34;;;;;;;4.63;1.27;;;12.80;99.90;;;;;;5009490;28;20026;-56
2022/05/28 07:40:00;;;;;;;4.30;1.05;;;12.90;99.90;;;;;;4992068;28;20052;-57
2022/05/28 07:42:28;;;;;;;4.82;1.30;;;12.80;99.90;;;;;;5009683;28;20080;-54
2022/05/28 07:44:54;;;;;;;7.80;1.40;;;12.70;99.90;;;;;;5009494;28;20377;-54
2022/05/28 07:47:20;;;;;;;7.20;1.45;;;12.70;99.90;;;;;;5012370;28;20495;-54
2022/05/28 07:49:46;;;;;;;4.20;1.10;;;12.70;99.90;;;;;;5012971;28;20038;-55
2022/05/28 07:52:11;;;;;;;5.50;1.73;;;12.70;99.90;;;;;;5012859;28;20104;-54
2022/05/28 07:54:37;;;;;;;5.97;1.48;;;12.70;99.90;;;;;;5013236;28;20100;-54
2022/05/28 07:57:04;;;;;;;6.43;1.42;;;12.80;99.90;;;;;;5013200;28;20026;-54
2022/05/28 07:59:30;;;;;;;8.48;1.75;;;12.80;99.90;;;;;;5012758;28;20501;-54
2022/05/28 08:01:56;;;;;;;5.68;1.45;;;12.80;99.90;;;;;;5012702;28;20044;-54
2022/05/28 08:04:21;;;;;;;6.97;1.60;;;12.80;99.90;;;;;;5013081;28;20029;-55
2022/05/28 08:06:47;;;;;;;7.10;1.35;;;12.70;99.90;;;;;;5012868;28;20457;-55
2022/05/28 08:09:13;;;;;;;8.07;1.42;;;12.70;99.90;;;;;;5012784;28;20101;-54
2022/05/28 08:11:39;;;;;;;5.43;1.10;;;12.80;99.90;;;;;;5013157;28;20025;-54
2022/05/28 08:14:05;;;;;;;8.38;1.15;;;13.00;99.90;;;;;;5012510;28;20048;-55
2022/05/28 08:16:31;;;;;;;6.15;1.50;;;13.10;99.90;;;;;;5012834;28;20500;-56
2022/05/28 08:18:57;;;;;;;6.00;1.17;;;13.30;99.90;;;;;;5012290;28;20034;-57
2022/05/28 08:24:07;;;;;;;5.63;1.30;;;13.40;99.90;;;;;;4983991;28;20045;-57
2022/05/28 08:26:35;;;;;;;6.07;1.40;;;13.50;99.90;;;;;;4982561;28;20749;-57
2022/05/28 08:29:00;;;;;;;10.30;1.70;;;13.50;99.90;;;;;;4980334;28;20058;-56
2022/05/28 08:31:26;;;;;;;7.97;1.60;;;13.50;99.90;;;;;;4983326;28;20524;-56
2022/05/28 08:33:53;;;;;;;8.05;2.05;;;13.60;99.90;;;;;;4983348;28;20037;-55
2022/05/28 08:36:20;;;;;;;5.45;1.60;;;13.70;99.90;;;;;;4982529;28;20477;-56
2022/05/28 08:38:46;;;;;;;3.67;1.33;;;13.50;99.90;;;;;;4981425;28;20817;-57
2022/05/28 08:41:15;;;;;;;11.23;1.20;;;13.40;99.90;;;;;;4974849;28;20031;-57
2022/05/28 08:43:56;;;;;;;6.18;2.10;;;13.50;99.90;;;;;;4978509;28;20478;-53
2022/05/28 08:46:23;;;;;;;6.70;1.25;;;13.80;99.90;;;;;;4982645;28;20022;-55
2022/05/28 08:48:54;;;;;;;7.90;1.98;;;13.90;99.90;;;;;;4981832;28;20054;-56
2022/05/28 08:51:38;;;;;;;3.63;0.88;;;13.90;99.90;;;;;;4980169;28;20387;-55
2022/05/28 08:54:58;;;;;;;6.68;1.40;;;13.80;99.90;;;;;;4983082;28;20039;-55
2022/05/28 08:57:45;;;;;;;5.85;1.00;;;13.70;99.90;;;;;;4950252;28;20025;-56
2022/05/28 09:00:37;;;;;;;4.60;0.95;;;14.10;99.90;;;;;;4988133;28;20061;-55
2022/05/28 09:03:26;;;;;;;5.22;0.80;;;14.00;99.90;;;;;;4989721;28;20033;-55
2022/05/28 09:06:14;;;;;;;2.35;0.63;;;13.50;96.70;;;;;;4991786;28;20033;-56
2022/05/28 09:08:46;;;;;;;2.55;0.77;;;13.40;99.90;;;;;;4990756;28;20029;-56
2022/05/28 09:11:52;;;;;;;2.50;0.63;;;13.50;99.40;;;;;;4990925;28;20034;-56
2022/05/28 09:14:22;;;;;;;3.38;0.55;;;13.50;96.20;;;;;;4987989;28;20525;-55
2022/05/28 09:16:51;;;;;;;2.33;0.55;;;13.70;99.90;;;;;;4991028;28;20451;-55
2022/05/28 09:19:39;;;;;;;5.65;0.52;;;14.20;98.20;;;;;;4991139;28;20022;-55
2022/05/28 09:22:05;;;;;;;2.33;0.50;;;14.40;96.10;;;;;;4984342;28;20374;-55
2022/05/28 09:24:33;;;;;;;1.55;0.70;;;14.30;93.50;;;;;;4980482;28;20038;-55
2022/05/28 09:27:10;;;;;;;2.53;0.63;;;14.10;92.80;;;;;;4982311;28;20034;-56
2022/05/28 09:30:05;;;;;;;4.68;1.33;;;14.40;94.70;;;;;;4980596;28;20560;-56
2022/05/28 09:33:04;;;;;;;1.92;0.40;;;14.50;94.90;;;;;;4985215;28;20113;-55
2022/05/28 09:35:45;;;;;;;2.45;0.70;;;14.90;93.20;;;;;;4990460;28;20025;-56
2022/05/28 09:38:14;;;;;;;2.92;0.43;;;15.10;91.10;;;;;;4991282;28;20116;-56
2022/05/28 09:40:58;;;;;;;2.75;0.60;;;14.70;90.80;;;;;;4973414;28;20081;-56
2022/05/28 09:44:00;;;;;;;4.57;0.77;;;14.60;91.10;;;;;;4989732;28;20508;-56
2022/05/28 09:46:36;;;;;;;2.85;0.50;;;14.90;91.70;;;;;;4987592;28;20382;-59
2022/05/28 09:49:21;;;;;;;5.15;1.13;;;15.20;85.60;;;;;;4972356;28;20022;-57
2022/05/28 09:51:57;;;;;;;1.80;0.82;;;15.50;90.00;;;;;;4985372;28;20065;-57
2022/05/28 09:54:27;;;;;;;6.00;0.73;;;14.80;88.40;;;;;;4973226;28;20089;-57
2022/05/28 09:57:19;;;;;;;1.52;0.63;;;15.00;90.00;;;;;;4971767;28;20074;-56
2022/05/28 09:59:49;;;;;;;3.50;0.47;;;15.00;92.00;;;;;;4971655;28;20023;-56
2022/05/28 10:02:20;;;;;;;1.00;0.40;;;14.90;87.30;;;;;;4979850;28;20031;-57
2022/05/28 10:04:57;;;;;;;4.22;0.60;;;14.60;84.30;;;;;;4989813;28;20548;-57
2022/05/28 10:07:47;;;;;;;2.80;0.50;;;14.90;84.40;;;;;;4982416;28;20153;-54
2022/05/28 10:10:22;;;;;;;4.38;0.73;;;14.70;86.50;;;;;;4977843;28;20062;-57
2022/05/28 10:12:48;;;;;;;6.75;0.57;;;14.70;87.80;;;;;;4989796;28;20046;-56
2022/05/28 10:15:28;;;;;;;3.10;0.77;;;14.00;91.30;;;;;;4986316;28;20030;-57
2022/05/28 10:17:57;;;;;;;3.65;1.15;;;13.60;96.30;;;;;;4987513;28;20034;-57
2022/05/28 10:20:23;;;;;;;3.88;0.88;;;13.40;99.90;;;;;;4989064;28;20031;-56
2022/05/28 10:22:51;;;;;;;6.47;0.70;;;13.20;99.90;;;;;;4987826;28;20027;-56
2022/05/28 10:25:29;;;;;;;7.10;1.38;;;13.10;99.90;;;;;;4989558;28;20061;-56
2022/05/28 10:27:56;;;;;;;4.10;1.00;;;13.20;99.90;;;;;;4989718;28;20030;-56
2022/05/28 10:30:44;;;;;;;9.05;1.10;;;13.30;99.90;;;;;;4989237;28;20026;-57
2022/05/28 10:33:22;;;;;;;1.73;0.70;;;13.30;99.90;;;;;;4993322;28;20497;-56
2022/05/28 10:35:48;;;;;;;1.90;0.60;;;13.20;99.90;;;;;;5008660;28;20038;-56
2022/05/28 10:38:25;;;;;;;1.50;0.60;;;13.10;99.90;;;;;;5008607;28;20025;-56
2022/05/28 10:41:00;;;;;;;1.77;0.93;;;12.90;99.90;;;;;;5008875;28;20032;-56
2022/05/28 10:43:36;;;;;;;3.13;1.10;;;12.80;99.90;;;;;;4990918;28;20474;-56
2022/05/28 10:46:14;;;;;;;1.27;0.55;;;12.60;99.90;;;;;;5010066;28;20024;-57
2022/05/28 10:48:58;;;;;;;3.60;1.17;;;12.40;99.90;;;;;;4992442;28;20026;-56
2022/05/28 10:51:58;;;;;;;6.03;1.67;;;12.50;99.90;;;;;;5009612;28;20140;-57
2022/05/28 10:54:48;;;;;;;3.97;1.30;;;12.80;99.90;;;;;;5009697;28;20095;-56
2022/05/28 10:57:35;;;;;;;4.95;1.08;;;13.30;99.90;;;;;;5009931;28;20097;-57
2022/05/28 11:00:06;;;;;;;2.85;0.80;;;13.40;99.90;;;;;;5009791;28;20489;-56
2022/05/28 11:02:50;;;;;;;4.63;1.50;;;13.30;99.90;;;;;;5009538;28;20036;-57
2022/05/28 11:05:32;;;;;;;4.57;1.27;;;13.50;99.90;;;;;;5009823;28;20033;-57
2022/05/28 11:08:19;;;;;;;7.25;1.67;;;13.70;99.90;;;;;;5009866;28;20113;-57
2022/05/28 11:11:07;;;;;;;6.88;1.65;;;13.90;99.90;;;;;;5009892;28;20378;-56
2022/05/28 11:13:56;;;;;;;3.60;1.05;;;13.90;99.90;;;;;;5009686;28;20168;-57
2022/05/28 11:16:34;;;;;;;2.25;0.70;;;13.90;99.90;;;;;;5010134;28;20065;-56
2022/05/28 11:19:14;;;;;;;1.23;0.50;;;13.60;99.90;;;;;;5010031;28;20073;-57
2022/05/28 11:21:56;;;;;;;3.35;0.65;;;13.60;99.90;;;;;;5011907;28;20022;-56
2022/05/28 11:24:36;;;;;;;3.35;0.60;;;13.50;99.90;;;;;;5013572;28;20036;-56
2022/05/28 11:27:11;;;;;;;1.70;0.60;;;13.40;99.90;;;;;;5013847;28;20014;-56
2022/05/28 11:29:42;;;;;;;1.30;0.50;;;13.10;99.90;;;;;;5013390;28;20390;-56
2022/05/28 11:32:25;;;;;;;3.78;0.70;;;12.90;99.90;;;;;;5013309;28;20385;-56
2022/05/28 11:34:54;;;;;;;5.45;1.30;;;12.90;99.90;;;;;;5006730;28;20025;-56
2022/05/28 11:37:52;;;;;;;4.07;0.65;;;12.50;99.90;;;;;;4993919;28;20018;-57
2022/05/28 11:40:31;;;;;;;2.60;0.70;;;12.90;99.90;;;;;;4993329;28;20034;-57
2022/05/28 11:44:06;;;;;;;;;;;;;;;;;;;;;
2022/05/28 11:46:45;;;;;;;4.50;0.60;;;13.60;99.90;;;;;;4893598;29;20037;-88
2022/05/28 11:52:22;;;;;;;3.92;0.95;;;14.20;99.90;;;;;;5035692;28;20064;-88
2022/05/28 11:58:35;;;;;;;1.70;0.43;;;14.40;98.00;;;;;;5025153;28;20029;-88
2022/05/28 12:01:10;;;;;;;2.28;0.80;;;14.20;99.60;;;;;;5022447;28;20033;-92
2022/05/28 12:03:46;;;;;;;1.65;0.50;;;14.70;99.00;;;;;;5026417;28;20083;-90
2022/05/28 12:06:26;;;;;;;4.10;0.50;;;15.10;97.20;;;;;;5032509;28;20025;-92
2022/05/28 12:08:55;;;;;;;3.55;0.50;;;15.50;95.70;;;;;;5034830;28;20053;-88
2022/05/28 12:11:27;;;;;;;3.15;0.90;;;16.20;90.10;;;;;;5034175;23;20412;-58
2022/05/28 12:14:00;;;;;;;3.50;0.50;;;16.40;85.80;;;;;;5030522;28;20044;-57
2022/05/28 12:16:39;;;;;;;2.25;0.32;;;16.50;85.90;;;;;;5030791;28;20029;-57
2022/05/28 12:19:11;;;;;;;2.17;0.40;;;16.70;79.50;;;;;;5030991;28;20025;-57
2022/05/28 12:21:39;;;;;;;0.98;0.30;;;16.70;78.90;;;;;;5031151;28;20029;-57
2022/05/28 12:24:19;;;;;;;1.73;0.47;;;16.80;78.50;;;;;;5031064;28;20037;-57
2022/05/28 12:29:31;;;;;;;2.47;0.30;;;16.80;78.90;;;;;;5031776;28;20029;-57
2022/05/28 12:32:18;;;;;;;3.75;0.50;;;16.90;77.50;;;;;;5032611;28;20101;-57
2022/05/28 12:35:21;;;;;;;1.08;0.20;;;16.00;79.60;;;;;;5045712;28;20391;-57
2022/05/28 12:38:18;;;;;;;2.50;0.50;;;15.50;78.00;;;;;;5051936;28;20028;-57
2022/05/28 12:40:54;;;;;;;1.50;0.70;;;15.50;81.40;;;;;;5051707;28;20040;-57
2022/05/28 12:43:35;;;;;;;3.55;0.63;;;15.00;91.60;;;;;;5051632;28;20029;-57
2022/05/28 12:46:41;;;;;;;4.15;0.60;;;14.20;99.90;;;;;;5051935;28;20036;-56
2022/05/28 12:49:09;;;;;;;1.08;0.30;;;13.80;99.90;;;;;;5038687;28;20029;-56
2022/05/28 12:52:07;;;;;;;3.28;0.60;;;13.10;99.90;;;;;;5051974;28;20025;-56
2022/05/28 12:54:36;;;;;;;3.33;1.10;;;12.60;99.90;;;;;;5051282;28;20056;-57
2022/05/28 12:57:25;;;;;;;2.88;0.70;;;12.20;99.90;;;;;;5051593;28;20028;-56
2022/05/28 13:00:07;;;;;;;6.85;1.73;;;11.80;99.90;;;;;;5051594;28;20357;-56
2022/05/28 13:02:39;;;;;;;7.85;1.35;;;11.60;99.90;;;;;;5033319;28;20395;-56
2022/05/28 13:05:16;;;;;;;7.72;1.38;;;11.60;99.90;;;;;;5051532;28;20029;-56
2022/05/28 13:07:52;;;;;;;9.07;1.98;;;11.60;99.90;;;;;;5051575;28;20111;-56
2022/05/28 13:10:29;;;;;;;4.40;0.75;;;11.70;99.90;;;;;;5051289;28;20080;-57
2022/05/28 13:13:17;;;;;;;3.97;1.27;;;12.20;99.90;;;;;;5050695;28;20430;-57
2022/05/28 13:16:08;;;;;;;0.88;0.50;;;12.80;99.90;;;;;;5051364;28;20036;-57
2022/05/28 13:18:47;;;;;;;1.65;0.50;;;13.60;99.90;;;;;;5051459;28;20625;-57
2022/05/28 13:21:37;;;;;;;2.03;0.85;;;14.30;99.90;;;;;;5050971;28;20440;-57
2022/05/28 13:24:27;;;;;;;3.35;1.30;;;14.80;99.90;;;;;;5050710;28;20559;-57